sensor_id;sensor_type;location;lat;lon;timestamp;temperature;humidity
9399;DHT22;4739;49.334;8.792;2022-09-09T05:41:11;14.90;99.90
9399;DHT22;4739;49.334;8.792;2022-09-09T05:43:37;15.00;99.90
9399;DHT22;4739;49.334;8.792;2022-09-09T05:46:11;15.00;99.90
9399;DHT22;4739;49.334;8.792;2022-09-09T05:48:39;15.10;99.90
9399;DHT22;4739;49.334;8.792;2022-09-09T05:51:08;15.20;99.90
9399;DHT22;4739;49.334;8.792;2022-09-09T05:53:34;15.20;99.90
9399;DHT22;4739;49.334;8.792;2022-09-09T05:56:02;15.30;99.90
9399;DHT22;4739;49.334;8.792;2022-09-09T05:58:29;15.40;99.90
9399;DHT22;4739;49.334;8.792;2022-09-09T06:01:06;15.40;99.90
9399;DHT22;4739;49.334;8.792;2022-09-09T06:03:34;15.40;99.90
9399;DHT22;4739;49.334;8.792;2022-09-09T06:06:02;15.50;99.90
9399;DHT22;4739;49.334;8.792;2022-09-09T06:08:31;15.50;99.90
9399;DHT22;4739;49.334;8.792;2022-09-09T06:11:04;15.60;99.90
9399;DHT22;4739;49.334;8.792;2022-09-09T06:13:31;15.60;99.90
9399;DHT22;4739;49.334;8.792;2022-09-09T06:15:57;15.70;99.90
9399;DHT22;4739;49.334;8.792;2022-09-09T06:18:24;15.70;99.90
9399;DHT22;4739;49.334;8.792;2022-09-09T06:20:57;15.70;99.90
9399;DHT22;4739;49.334;8.792;2022-09-09T06:23:23;15.70;99.90
9399;DHT22;4739;49.334;8.792;2022-09-09T06:25:49;15.70;99.90
9399;DHT22;4739;49.334;8.792;2022-09-09T06:28:17;15.80;99.90
9399;DHT22;4739;49.334;8.792;2022-09-09T06:30:42;15.80;99.90
9399;DHT22;4739;49.334;8.792;2022-09-09T06:33:08;15.90;99.90
9399;DHT22;4739;49.334;8.792;2022-09-09T06:35:35;16.00;99.90
9399;DHT22;4739;49.334;8.792;2022-09-09T06:38:00;16.20;99.90
9399;DHT22;4739;49.334;8.792;2022-09-09T06:40:26;16.40;99.90
9399;DHT22;4739;49.334;8.792;2022-09-09T06:42:51;16.50;99.90
9399;DHT22;4739;49.334;8.792;2022-09-09T06:45:17;16.50;99.90
9399;DHT22;4739;49.334;8.792;2022-09-09T06:47:43;16.70;99.90
9399;DHT22;4739;49.334;8.792;2022-09-09T06:50:09;16.80;99.90
9399;DHT22;4739;49.334;8.792;2022-09-09T06:52:36;17.00;99.90
9399;DHT22;4739;49.334;8.792;2022-09-09T06:55:02;17.20;99.90
9399;DHT22;4739;49.334;8.792;2022-09-09T06:57:28;17.30;99.90
9399;DHT22;4739;49.334;8.792;2022-09-09T06:59:54;17.30;99.90
9399;DHT22;4739;49.334;8.792;2022-09-09T07:02:19;17.40;99.90
9399;DHT22;4739;49.334;8.792;2022-09-09T07:04:45;17.50;99.90
9399;DHT22;4739;49.334;8.792;2022-09-09T07:07:10;17.60;99.90
9399;DHT22;4739;49.334;8.792;2022-09-09T07:09:39;17.70;99.90
9399;DHT22;4739;49.334;8.792;2022-09-09T07:12:05;17.70;99.90
9399;DHT22;4739;49.334;8.792;2022-09-09T07:14:31;17.70;99.90
9399;DHT22;4739;49.334;8.792;2022-09-09T07:16:58;17.80;99.90
9399;DHT22;4739;49.334;8.792;2022-09-09T07:19:23;17.70;99.90
9399;DHT22;4739;49.334;8.792;2022-09-09T07:21:49;17.70;99.90
9399;DHT22;4739;49.334;8.792;2022-09-09T07:24:15;17.80;99.90
9399;DHT22;4739;49.334;8.792;2022-09-09T07:26:41;17.80;99.90
9399;DHT22;4739;49.334;8.792;2022-09-09T07:29:07;17.90;99.90
9399;DHT22;4739;49.334;8.792;2022-09-09T07:31:36;18.10;99.90
9399;DHT22;4739;49.334;8.792;2022-09-09T07:34:02;18.10;99.90
9399;DHT22;4739;49.334;8.792;2022-09-09T07:36:33;18.20;99.90
9399;DHT22;4739;49.334;8.792;2022-09-09T07:39:02;18.30;99.90
9399;DHT22;4739;49.334;8.792;2022-09-09T07:41:37;18.40;99.90
9399;DHT22;4739;49.334;8.792;2022-09-09T07:44:09;18.40;99.90
9399;DHT22;4739;49.334;8.792;2022-09-09T07:46:36;18.40;99.90
9399;DHT22;4739;49.334;8.792;2022-09-09T07:49:02;18.40;99.90
9399;DHT22;4739;49.334;8.792;2022-09-09T07:51:30;18.40;99.90
9399;DHT22;4739;49.334;8.792;2022-09-09T07:54:08;18.40;99.90
9399;DHT22;4739;49.334;8.792;2022-09-09T07:56:35;18.40;99.90
9399;DHT22;4739;49.334;8.792;2022-09-09T07:59:01;18.50;99.90
9399;DHT22;4739;49.334;8.792;2022-09-09T08:01:30;18.50;99.90
9399;DHT22;4739;49.334;8.792;2022-09-09T08:03:58;18.60;99.90
9399;DHT22;4739;49.334;8.792;2022-09-09T08:06:31;18.60;99.90
9399;DHT22;4739;49.334;8.792;2022-09-09T08:08:58;18.60;99.90
9399;DHT22;4739;49.334;8.792;2022-09-09T08:11:26;18.60;99.90
9399;DHT22;4739;49.334;8.792;2022-09-09T08:13:53;18.70;99.90
9399;DHT22;4739;49.334;8.792;2022-09-09T08:16:21;18.90;99.90
9399;DHT22;4739;49.334;8.792;2022-09-09T08:18:48;19.00;99.90
9399;DHT22;4739;49.334;8.792;2022-09-09T08:21:17;19.10;99.90
9399;DHT22;4739;49.334;8.792;2022-09-09T08:23:44;19.40;99.90
9399;DHT22;4739;49.334;8.792;2022-09-09T08:26:15;19.70;99.90
9399;DHT22;4739;49.334;8.792;2022-09-09T08:28:42;19.90;99.90
9399;DHT22;4739;49.334;8.792;2022-09-09T08:31:16;20.00;99.90
9399;DHT22;4739;49.334;8.792;2022-09-09T08:33:43;20.20;99.90
9399;DHT22;4739;49.334;8.792;2022-09-09T08:36:13;20.50;99.90
9399;DHT22;4739;49.334;8.792;2022-09-09T08:38:43;20.50;99.90
9399;DHT22;4739;49.334;8.792;2022-09-09T08:49:43;20.70;99.90
9399;DHT22;4739;49.334;8.792;2022-09-09T08:52:19;20.40;99.90
9399;DHT22;4739;49.334;8.792;2022-09-09T08:54:47;19.90;99.90
9399;DHT22;4739;49.334;8.792;2022-09-09T08:57:21;19.60;99.90
9399;DHT22;4739;49.334;8.792;2022-09-09T08:59:52;19.50;99.90
9399;DHT22;4739;49.334;8.792;2022-09-09T09:05:45;19.10;99.90
9399;DHT22;4739;49.334;8.792;2022-09-09T09:08:40;19.00;99.90
9399;DHT22;4739;49.334;8.792;2022-09-09T09:11:08;19.00;99.90
9399;DHT22;4739;49.334;8.792;2022-09-09T09:13:58;19.00;99.90
9399;DHT22;4739;49.334;8.792;2022-09-09T09:16:33;18.90;99.90
9399;DHT22;4739;49.334;8.792;2022-09-09T09:19:01;19.10;99.90
9399;DHT22;4739;49.334;8.792;2022-09-09T09:21:42;19.20;99.90
9399;DHT22;4739;49.334;8.792;2022-09-09T09:24:19;19.40;99.90
9399;DHT22;4739;49.334;8.792;2022-09-09T09:26:45;19.40;99.90
9399;DHT22;4739;49.334;8.792;2022-09-09T09:29:16;19.40;99.90
9399;DHT22;4739;49.334;8.792;2022-09-09T09:31:48;19.50;99.90
9399;DHT22;4739;49.334;8.792;2022-09-09T09:34:16;19.70;99.90
9399;DHT22;4739;49.334;8.792;2022-09-09T09:36:56;19.90;99.90
9399;DHT22;4739;49.334;8.792;2022-09-09T09:39:33;20.10;99.90
9399;DHT22;4739;49.334;8.792;2022-09-09T09:42:14;20.20;99.90
9399;DHT22;4739;49.334;8.792;2022-09-09T09:44:41;20.30;99.90
9399;DHT22;4739;49.334;8.792;2022-09-09T09:47:16;20.10;99.90
9399;DHT22;4739;49.334;8.792;2022-09-09T09:49:56;20.40;99.90
9399;DHT22;4739;49.334;8.792;2022-09-09T09:52:28;20.40;99.90
9399;DHT22;4739;49.334;8.792;2022-09-09T09:54:56;20.40;99.90
9399;DHT22;4739;49.334;8.792;2022-09-09T09:57:28;20.60;99.90
9399;DHT22;4739;49.334;8.792;2022-09-09T10:00:13;20.80;99.90
9399;DHT22;4739;49.334;8.792;2022-09-09T10:02:42;21.00;99.90
9399;DHT22;4739;49.334;8.792;2022-09-09T10:05:19;21.10;99.90
9399;DHT22;4739;49.334;8.792;2022-09-09T10:07:45;21.40;99.90
9399;DHT22;4739;49.334;8.792;2022-09-09T10:10:56;21.30;99.90
9399;DHT22;4739;49.334;8.792;2022-09-09T10:26:41;20.80;99.90
9399;DHT22;4739;49.334;8.792;2022-09-09T10:34:39;20.60;99.90
9399;DHT22;4739;49.334;8.792;2022-09-09T10:42:46;20.70;99.90
9399;DHT22;4739;49.334;8.792;2022-09-09T10:45:18;20.90;99.90
9399;DHT22;4739;49.334;8.792;2022-09-09T10:47:58;21.10;99.90
9399;DHT22;4739;49.334;8.792;2022-09-09T10:50:35;21.40;99.90
9399;DHT22;4739;49.334;8.792;2022-09-09T10:53:26;21.40;99.90
9399;DHT22;4739;49.334;8.792;2022-09-09T10:56:01;21.50;99.90
9399;DHT22;4739;49.334;8.792;2022-09-09T10:58:48;21.60;99.90
9399;DHT22;4739;49.334;8.792;2022-09-09T11:01:20;21.60;99.90
9399;DHT22;4739;49.334;8.792;2022-09-09T11:03:53;21.80;99.90
9399;DHT22;4739;49.334;8.792;2022-09-09T11:06:24;22.00;99.90
9399;DHT22;4739;49.334;8.792;2022-09-09T11:08:53;22.10;99.90
9399;DHT22;4739;49.334;8.792;2022-09-09T11:11:49;22.20;99.90
9399;DHT22;4739;49.334;8.792;2022-09-09T11:16:58;22.40;99.90
9399;DHT22;4739;49.334;8.792;2022-09-09T11:19:41;22.40;99.90
9399;DHT22;4739;49.334;8.792;2022-09-09T11:25:13;22.60;99.90
9399;DHT22;4739;49.334;8.792;2022-09-09T11:35:50;23.20;99.90
9399;DHT22;4739;49.334;8.792;2022-09-09T11:38:46;22.80;99.90
9399;DHT22;4739;49.334;8.792;2022-09-09T11:41:12;22.90;99.90
9399;DHT22;4739;49.334;8.792;2022-09-09T11:46:06;22.90;99.90
9399;DHT22;4739;49.334;8.792;2022-09-09T11:48:37;22.80;99.90
9399;DHT22;4739;49.334;8.792;2022-09-09T11:54:01;23.20;99.90
9399;DHT22;4739;49.334;8.792;2022-09-09T11:56:32;23.20;99.90
9399;DHT22;4739;49.334;8.792;2022-09-09T11:59:05;23.20;99.90
9399;DHT22;4739;49.334;8.792;2022-09-09T12:01:36;23.20;99.90
9399;DHT22;4739;49.334;8.792;2022-09-09T12:06:53;23.30;99.90
9399;DHT22;4739;49.334;8.792;2022-09-09T12:09:33;23.30;99.90
9399;DHT22;4739;49.334;8.792;2022-09-09T12:19:41;22.70;99.90
9399;DHT22;4739;49.334;8.792;2022-09-09T12:31:17;23.10;99.90
9399;DHT22;4739;49.334;8.792;2022-09-09T12:33:46;23.10;99.90
9399;DHT22;4739;49.334;8.792;2022-09-09T12:36:28;22.90;99.90
9399;DHT22;4739;49.334;8.792;2022-09-09T12:38:58;22.80;99.90
9399;DHT22;4739;49.334;8.792;2022-09-09T12:41:27;22.60;99.90
9399;DHT22;4739;49.334;8.792;2022-09-09T12:44:09;22.30;99.90
9399;DHT22;4739;49.334;8.792;2022-09-09T12:46:41;22.20;99.90
9399;DHT22;4739;49.334;8.792;2022-09-09T12:51:53;21.90;99.90
9399;DHT22;4739;49.334;8.792;2022-09-09T12:54:19;21.70;99.90
9399;DHT22;4739;49.334;8.792;2022-09-09T12:56:46;21.60;99.90
9399;DHT22;4739;49.334;8.792;2022-09-09T12:59:34;21.60;99.90
9399;DHT22;4739;49.334;8.792;2022-09-09T13:02:00;21.40;99.90
9399;DHT22;4739;49.334;8.792;2022-09-09T13:04:26;21.40;99.90
9399;DHT22;4739;49.334;8.792;2022-09-09T13:06:52;21.20;99.90
9399;DHT22;4739;49.334;8.792;2022-09-09T13:09:18;21.20;99.90
9399;DHT22;4739;49.334;8.792;2022-09-09T13:11:50;21.20;99.90
9399;DHT22;4739;49.334;8.792;2022-09-09T13:14:19;21.20;99.90
9399;DHT22;4739;49.334;8.792;2022-09-09T13:16:58;21.00;99.90
9399;DHT22;4739;49.334;8.792;2022-09-09T13:19:24;20.90;99.90
9399;DHT22;4739;49.334;8.792;2022-09-09T13:21:54;20.80;99.90
9399;DHT22;4739;49.334;8.792;2022-09-09T13:24:32;20.60;99.90
9399;DHT22;4739;49.334;8.792;2022-09-09T13:27:01;20.60;99.90
9399;DHT22;4739;49.334;8.792;2022-09-09T13:29:28;20.50;99.90
9399;DHT22;4739;49.334;8.792;2022-09-09T13:31:54;20.30;99.90
9399;DHT22;4739;49.334;8.792;2022-09-09T13:34:33;20.20;99.90
9399;DHT22;4739;49.334;8.792;2022-09-09T13:37:03;20.10;99.90
9399;DHT22;4739;49.334;8.792;2022-09-09T13:39:33;20.00;99.90
9399;DHT22;4739;49.334;8.792;2022-09-09T13:41:59;20.00;99.90
9399;DHT22;4739;49.334;8.792;2022-09-09T13:44:26;19.70;99.90
9399;DHT22;4739;49.334;8.792;2022-09-09T13:47:02;19.60;99.90
9399;DHT22;4739;49.334;8.792;2022-09-09T13:49:30;19.20;99.90
9399;DHT22;4739;49.334;8.792;2022-09-09T13:52:16;19.00;99.90
9399;DHT22;4739;49.334;8.792;2022-09-09T13:54:49;18.80;99.90
9399;DHT22;4739;49.334;8.792;2022-09-09T13:57:20;18.70;99.90
9399;DHT22;4739;49.334;8.792;2022-09-09T13:59:46;18.70;99.90
9399;DHT22;4739;49.334;8.792;2022-09-09T14:02:13;18.60;99.90
9399;DHT22;4739;49.334;8.792;2022-09-09T14:04:39;18.70;99.90
9399;DHT22;4739;49.334;8.792;2022-09-09T14:07:12;18.70;99.90
9399;DHT22;4739;49.334;8.792;2022-09-09T14:09:38;18.80;99.90
9399;DHT22;4739;49.334;8.792;2022-09-09T23:37:43;15.40;99.90
9399;DHT22;4739;49.334;8.792;2022-09-09T23:40:09;15.40;99.90
9399;DHT22;4739;49.334;8.792;2022-09-09T23:42:35;15.50;99.90
9399;DHT22;4739;49.334;8.792;2022-09-09T23:45:00;15.40;99.90
9399;DHT22;4739;49.334;8.792;2022-09-09T23:47:26;15.30;99.90
9399;DHT22;4739;49.334;8.792;2022-09-09T23:49:52;15.30;99.90
9399;DHT22;4739;49.334;8.792;2022-09-09T23:52:18;15.30;99.90
9399;DHT22;4739;49.334;8.792;2022-09-09T23:54:43;15.30;99.90
9399;DHT22;4739;49.334;8.792;2022-09-09T23:57:09;15.20;99.90
9399;DHT22;4739;49.334;8.792;2022-09-09T23:59:38;15.30;99.90
